Time;durP1;ratioP1;P1;durP2;ratioP2;P2;SDS_P1;SDS_P2;PMS_P1;PMS_P2;Temp;Humidity;BMP_temperature;BMP_pressure;BME280_temperature;BME280_humidity;BME280_pressure;Samples;Min_cycle;Max_cycle;Signal;HPM_P1;HPM_P2
2023/10/22 00:39:21;;;;;;;1999.90;999.90;;;;;;;10.35;100.00;93632.31;5086715;28;20207;-55
2023/10/22 00:41:47;;;;;;;1999.90;999.90;;;;;;;10.35;100.00;93632.31;5069695;28;20245;-57
2023/10/22 00:44:12;;;;;;;1999.90;999.90;;;;;;;10.36;100.00;93638.50;5069395;28;20433;-54
2023/10/22 00:46:38;;;;;;;1999.90;999.90;;;;;;;10.39;100.00;93643.09;5069150;28;20179;-55
2023/10/22 00:49:03;;;;;;;1999.90;999.90;;;;;;;10.38;100.00;93641.56;5069151;28;20178;-56
2023/10/22 00:51:29;;;;;;;1999.90;999.90;;;;;;;10.40;100.00;93659.03;5069132;28;20175;-56
2023/10/22 00:53:55;;;;;;;1999.90;999.90;;;;;;;10.38;100.00;93647.78;5069089;28;20239;-52
2023/10/22 00:56:22;;;;;;;1999.90;999.90;;;;;;;10.36;100.00;93652.16;5069010;28;20212;-56
2023/10/22 00:58:48;;;;;;;1999.90;999.90;;;;;;;10.34;100.00;93654.59;5069027;28;20201;-57
2023/10/22 01:01:15;;;;;;;1999.90;999.90;;;;;;;10.34;100.00;93651.84;5068966;28;20359;-57
2023/10/22 01:03:40;;;;;;;1999.90;999.90;;;;;;;10.36;100.00;93657.63;5069365;28;20172;-54
2023/10/22 01:06:07;;;;;;;1999.90;999.90;;;;;;;10.33;100.00;93655.78;5069372;28;20179;-57
2023/10/22 01:08:34;;;;;;;1999.90;999.90;;;;;;;10.35;100.00;93658.81;5069437;28;20172;-56
2023/10/22 01:11:10;;;;;;;1999.90;999.90;;;;;;;10.31;100.00;93663.66;5068670;28;20199;-58
2023/10/22 01:13:37;;;;;;;1999.90;999.90;;;;;;;10.32;100.00;93659.72;5068729;28;20183;-58
2023/10/22 01:16:03;;;;;;;1999.90;999.90;;;;;;;10.30;100.00;93659.41;5069133;28;20202;-56
2023/10/22 01:18:28;;;;;;;1999.90;999.90;;;;;;;10.28;100.00;93653.63;5068728;28;20266;-54
2023/10/22 01:20:54;;;;;;;1999.90;999.90;;;;;;;10.22;100.00;93658.09;5068581;28;20168;-54
2023/10/22 01:23:20;;;;;;;1999.90;999.90;;;;;;;10.22;100.00;93658.88;5068478;28;20180;-55
2023/10/22 01:25:45;;;;;;;1999.90;999.90;;;;;;;10.20;100.00;93660.53;5069286;28;20168;-56
2023/10/22 01:28:11;;;;;;;1999.90;999.90;;;;;;;10.17;100.00;93666.88;5068149;28;20202;-57
2023/10/22 01:30:36;;;;;;;1999.90;999.90;;;;;;;10.13;100.00;93668.97;5068321;28;20180;-56
2023/10/22 01:33:02;;;;;;;1999.90;999.90;;;;;;;10.14;100.00;93663.06;5068200;28;20167;-56
2023/10/22 01:35:27;;;;;;;1999.90;999.90;;;;;;;10.16;100.00;93663.38;5068193;28;20386;-56
2023/10/22 01:37:53;;;;;;;1999.90;999.90;;;;;;;10.16;100.00;93665.34;5068784;28;20227;-56
2023/10/22 01:40:19;;;;;;;1999.90;999.90;;;;;;;10.13;100.00;93660.78;5068099;28;20386;-55
2023/10/22 01:42:45;;;;;;;1999.90;999.90;;;;;;;10.13;100.00;93667.75;5068789;28;20178;-57
2023/10/22 01:45:11;;;;;;;1999.90;999.90;;;;;;;10.09;100.00;93667.09;5067962;28;20179;-56
2023/10/22 01:47:37;;;;;;;1999.90;999.90;;;;;;;10.07;100.00;93669.53;5068267;28;20167;-58
2023/10/22 01:50:04;;;;;;;1999.90;999.90;;;;;;;10.09;100.00;93672.56;5067823;28;20179;-57
2023/10/22 01:52:30;;;;;;;1999.90;999.90;;;;;;;10.07;100.00;93675.00;5068015;28;20173;-58
2023/10/22 01:54:55;;;;;;;1999.90;999.90;;;;;;;10.10;100.00;93674.09;5068338;28;20178;-58
2023/10/22 01:57:21;;;;;;;1999.90;999.90;;;;;;;10.08;100.00;93681.97;5068564;28;20172;-57
2023/10/22 01:59:46;;;;;;;1999.90;999.90;;;;;;;10.10;100.00;93678.78;5067870;28;20168;-57
2023/10/22 02:02:11;;;;;;;1999.90;999.90;;;;;;;10.10;100.00;93674.09;5068236;28;20171;-56
2023/10/22 02:04:37;;;;;;;1999.90;999.90;;;;;;;10.08;100.00;93687.41;5067922;28;20175;-53
2023/10/22 02:07:02;;;;;;;1999.90;999.90;;;;;;;10.03;100.00;93677.00;5067635;28;20243;-56
2023/10/22 02:09:28;;;;;;;1999.90;999.90;;;;;;;10.09;100.00;93680.75;5068187;28;20226;-57
2023/10/22 02:11:53;;;;;;;1999.90;999.90;;;;;;;10.07;100.00;93680.44;5067577;28;20179;-57
2023/10/22 02:14:19;;;;;;;1999.90;999.90;;;;;;;10.09;100.00;93680.75;5068366;28;20211;-56
2023/10/22 02:16:45;;;;;;;1999.90;999.90;;;;;;;10.13;100.00;93682.59;5067165;28;20215;-56
2023/10/22 02:19:10;;;;;;;1999.90;999.90;;;;;;;10.10;100.00;93684.25;5067430;28;20180;-55
2023/10/22 02:21:36;;;;;;;1999.90;999.90;;;;;;;10.16;100.00;93687.16;5067912;28;20172;-57
2023/10/22 02:24:01;;;;;;;1999.90;999.90;;;;;;;10.16;100.00;93689.91;5067821;28;20171;-56
2023/10/22 02:26:26;;;;;;;1999.90;999.90;;;;;;;10.17;100.00;93685.97;5068089;28;20179;-56
2023/10/22 02:28:52;;;;;;;1999.90;999.90;;;;;;;10.18;100.00;93690.97;5067277;28;20416;-55
2023/10/22 02:31:17;;;;;;;1999.90;999.90;;;;;;;10.19;100.00;93697.22;5067691;28;20175;-56
2023/10/22 02:33:43;;;;;;;1999.90;999.90;;;;;;;10.17;100.00;93694.13;5067372;28;20180;-56
2023/10/22 02:36:08;;;;;;;1999.90;999.90;;;;;;;10.16;100.00;93698.09;5067429;28;20208;-56
2023/10/22 02:38:36;;;;;;;1999.90;999.90;;;;;;;10.18;100.00;93701.13;5067101;28;20203;-55
2023/10/22 02:41:02;;;;;;;1999.90;999.90;;;;;;;10.13;100.00;93697.75;5067117;28;20173;-56
2023/10/22 02:43:28;;;;;;;1999.90;999.90;;;;;;;10.14;100.00;93699.25;5067114;28;20176;-57
2023/10/22 02:45:55;;;;;;;1999.90;999.90;;;;;;;10.19;100.00;93702.66;5067075;28;20179;-55
2023/10/22 02:48:21;;;;;;;1999.90;999.90;;;;;;;10.18;100.00;93706.56;5067100;28;20182;-57
2023/10/22 02:50:47;;;;;;;1999.90;999.90;;;;;;;10.20;100.00;93710.38;5067114;28;20340;-56
2023/10/22 02:53:13;;;;;;;1999.90;999.90;;;;;;;10.18;100.00;93703.84;5067058;28;20175;-56
2023/10/22 02:55:39;;;;;;;1999.90;999.90;;;;;;;10.19;100.00;93708.84;5067511;28;20208;-56
2023/10/22 02:58:04;;;;;;;1999.90;999.90;;;;;;;10.14;100.00;93702.00;5066692;28;20193;-56
2023/10/22 03:00:30;;;;;;;1999.90;999.90;;;;;;;10.18;100.00;93709.28;5066999;28;20212;-56
2023/10/22 03:02:55;;;;;;;1999.90;999.90;;;;;;;10.15;100.00;93708.22;5067041;28;20171;-57
2023/10/22 03:05:21;;;;;;;1999.90;999.90;;;;;;;10.12;100.00;93711.06;5066967;28;20199;-57
2023/10/22 03:07:46;;;;;;;1999.90;999.90;;;;;;;10.13;100.00;93709.88;5067016;28;20229;-57
2023/10/22 03:10:12;;;;;;;1999.90;999.90;;;;;;;10.12;100.00;93708.34;5067588;28;20168;-57
2023/10/22 03:12:37;;;;;;;1999.90;999.90;;;;;;;10.12;100.00;93711.06;5066913;28;20197;-52
2023/10/22 03:15:03;;;;;;;1999.90;999.90;;;;;;;10.13;100.00;93705.94;5066833;28;20234;-54
2023/10/22 03:17:30;;;;;;;1999.90;999.90;;;;;;;10.05;100.00;93709.31;5067014;28;20169;-55
2023/10/22 03:19:55;;;;;;;1999.90;999.90;;;;;;;10.08;100.00;93709.22;5066859;28;20174;-56
2023/10/22 03:22:20;;;;;;;1999.90;999.90;;;;;;;10.07;100.00;93710.44;5066813;28;20174;-56
2023/10/22 03:24:50;;;;;;;1999.90;999.90;;;;;;;10.07;100.00;93713.16;5066804;28;20178;-56
2023/10/22 03:27:15;;;;;;;1999.90;999.90;;;;;;;10.10;100.00;93711.53;5066751;28;20197;-54
2023/10/22 03:29:41;;;;;;;1999.90;999.90;;;;;;;10.07;100.00;93718.63;5066763;28;20168;-55
2023/10/22 03:32:09;;;;;;;1999.90;999.90;;;;;;;10.04;100.00;93719.47;5067464;28;20169;-56
2023/10/22 03:34:34;;;;;;;1999.90;999.90;;;;;;;10.02;100.00;93715.66;5067194;28;20171;-57
2023/10/22 03:37:04;;;;;;;1999.90;999.90;;;;;;;10.03;100.00;93711.72;5066336;28;20238;-58
2023/10/22 03:39:33;;;;;;;1999.90;999.90;;;;;;;10.01;100.00;93725.78;5067142;28;20266;-56
2023/10/22 03:41:58;;;;;;;1999.90;999.90;;;;;;;10.00;100.00;93718.81;5066627;28;20268;-56
2023/10/22 03:44:24;;;;;;;1999.90;999.90;;;;;;;9.98;100.00;93710.31;5066614;28;20183;-56
2023/10/22 03:46:49;;;;;;;1999.90;999.90;;;;;;;9.96;100.00;93718.19;5066588;28;20189;-56
2023/10/22 03:49:15;;;;;;;1999.90;999.90;;;;;;;9.94;100.00;93723.31;5066912;28;20172;-57
2023/10/22 03:51:40;;;;;;;1999.90;999.90;;;;;;;9.95;100.00;93724.81;5070606;28;20387;-56
2023/10/22 03:54:06;;;;;;;1999.90;999.90;;;;;;;9.94;100.00;93720.56;5070769;28;20172;-55
2023/10/22 03:56:31;;;;;;;1999.90;999.90;;;;;;;9.94;100.00;93734.22;5070042;28;20225;-56
2023/10/22 03:58:57;;;;;;;1999.90;999.90;;;;;;;9.92;100.00;93725.69;5070646;28;20222;-56
2023/10/22 04:01:22;;;;;;;1999.90;999.90;;;;;;;9.90;100.00;93727.34;5070649;28;20201;-56
2023/10/22 04:03:47;;;;;;;1999.90;999.90;;;;;;;9.90;100.00;93725.38;5070711;28;20182;-55
2023/10/22 04:06:13;;;;;;;1999.90;999.90;;;;;;;9.92;100.00;93722.97;5069978;28;20370;-55
2023/10/22 04:08:38;;;;;;;1999.90;999.90;;;;;;;9.89;100.00;93721.16;5070038;28;20393;-56
2023/10/22 04:11:04;;;;;;;1999.90;999.90;;;;;;;9.88;100.00;93733.22;5069830;28;20172;-54
2023/10/22 04:13:30;;;;;;;1999.90;999.90;;;;;;;9.92;100.00;93727.69;5069928;28;20198;-54
2023/10/22 04:15:55;;;;;;;1999.90;999.90;;;;;;;9.97;100.00;93729.84;5070055;28;20214;-56
2023/10/22 04:18:21;;;;;;;1999.90;999.90;;;;;;;9.89;100.00;93734.78;5070036;28;20208;-57
2023/10/22 04:20:47;;;;;;;1999.90;999.90;;;;;;;9.91;100.00;93737.81;5069822;28;20183;-57
2023/10/22 04:23:12;;;;;;;1999.90;999.90;;;;;;;9.92;100.00;93744.78;5069596;28;20171;-56
2023/10/22 04:25:40;;;;;;;1999.90;999.90;;;;;;;9.93;100.00;93749.06;5070116;28;20201;-56
2023/10/22 04:28:06;;;;;;;1999.90;999.90;;;;;;;9.94;100.00;93747.84;5070117;28;20174;-55
2023/10/22 04:30:37;;;;;;;1999.90;999.90;;;;;;;9.97;100.00;93746.97;5070125;28;20170;-56
2023/10/22 04:33:04;;;;;;;1999.90;999.90;;;;;;;9.97;100.00;93746.97;5070058;28;20324;-55
2023/10/22 04:35:31;;;;;;;1999.90;999.90;;;;;;;9.95;100.00;93738.44;5069955;28;20236;-56
2023/10/22 04:37:56;;;;;;;1999.90;999.90;;;;;;;9.94;100.00;93745.13;5069814;28;20243;-56
2023/10/22 04:40:22;;;;;;;1999.90;999.90;;;;;;;9.95;100.00;93763.00;5069191;28;20241;-57
2023/10/22 04:42:47;;;;;;;1999.90;999.90;;;;;;;9.95;100.00;93776.63;5069422;28;20190;-57
2023/10/22 04:45:12;;;;;;;1999.90;999.90;;;;;;;9.91;100.00;93770.53;5070027;28;20185;-57
2023/10/22 04:47:38;;;;;;;1999.90;999.90;;;;;;;9.89;100.00;93775.66;5069830;28;20237;-57
2023/10/22 04:50:04;;;;;;;1999.90;999.90;;;;;;;9.91;100.00;93775.97;5069165;28;20214;-57
2023/10/22 04:52:34;;;;;;;1999.90;999.90;;;;;;;9.89;100.00;93770.22;5069718;28;20172;-52
2023/10/22 04:55:00;;;;;;;1999.90;999.90;;;;;;;9.90;100.00;93774.47;5068998;28;20177;-57
2023/10/22 04:57:26;;;;;;;1999.90;999.90;;;;;;;9.88;100.00;93771.41;5068979;28;20174;-57
2023/10/22 04:59:52;;;;;;;1999.90;999.90;;;;;;;9.88;100.00;93768.66;5069252;28;20526;-55
2023/10/22 05:02:17;;;;;;;1999.90;999.90;;;;;;;9.89;100.00;93772.16;5068338;28;20168;-55
2023/10/22 05:04:49;;;;;;;1999.90;999.90;;;;;;;9.91;100.00;93770.53;5069013;28;20172;-57
2023/10/22 05:07:14;;;;;;;1999.90;999.90;;;;;;;9.90;100.00;93771.72;5069491;28;20254;-57
2023/10/22 05:09:40;;;;;;;1999.90;999.90;;;;;;;9.91;100.00;93767.78;5069278;28;20235;-56
2023/10/22 05:12:06;;;;;;;1999.90;999.90;;;;;;;9.89;100.00;93755.81;5069343;28;20175;-57
2023/10/22 05:14:31;;;;;;;1999.90;999.90;;;;;;;9.88;100.00;93751.56;5068766;28;20243;-58
2023/10/22 05:16:57;;;;;;;1999.90;999.90;;;;;;;9.91;100.00;93759.63;5068641;28;20207;-57
2023/10/22 05:19:22;;;;;;;1999.90;999.90;;;;;;;9.89;100.00;93755.81;5069381;28;20202;-56
2023/10/22 05:21:48;;;;;;;1999.90;999.90;;;;;;;9.91;100.00;93748.72;5069135;28;20172;-58
2023/10/22 05:24:13;;;;;;;1999.90;999.90;;;;;;;9.95;100.00;93743.91;5068539;28;20176;-54
2023/10/22 05:26:39;;;;;;;1999.90;999.90;;;;;;;9.92;100.00;93733.88;5068669;28;20183;-54
2023/10/22 05:29:05;;;;;;;1999.90;999.90;;;;;;;9.91;100.00;93726.16;5068911;28;20176;-53
2023/10/22 05:31:30;;;;;;;1999.90;999.90;;;;;;;9.90;100.00;93714.47;5069259;28;20213;-57
2023/10/22 05:33:56;;;;;;;1999.90;999.90;;;;;;;9.91;100.00;93710.53;5068373;28;20195;-55
2023/10/22 05:36:22;;;;;;;1999.90;999.90;;;;;;;9.91;100.00;93691.47;5068071;28;20223;-57
2023/10/22 05:38:48;;;;;;;1999.90;999.90;;;;;;;9.90;100.00;93679.03;5068557;28;20451;-55
2023/10/22 05:41:25;;;;;;;1999.90;999.90;;;;;;;9.92;100.00;93662.25;5068471;28;20249;-57
2023/10/22 05:43:52;;;;;;;1999.90;999.90;;;;;;;9.95;100.00;93658.63;5068978;28;20170;-52
2023/10/22 05:46:17;;;;;;;1999.90;999.90;;;;;;;9.97;100.00;93654.25;5068381;28;20180;-55
2023/10/22 05:48:43;;;;;;;1999.90;999.90;;;;;;;9.97;100.00;93658.94;5068824;28;20168;-50
2023/10/22 05:51:08;;;;;;;1999.90;999.90;;;;;;;9.99;100.00;93662.00;5068083;28;20171;-55
2023/10/22 05:53:33;;;;;;;1999.90;999.90;;;;;;;10.01;100.00;93660.34;5067893;28;20346;-56
2023/10/22 05:55:59;;;;;;;1999.90;999.90;;;;;;;10.02;100.00;93648.22;5068004;28;20207;-58
2023/10/22 05:58:25;;;;;;;1999.90;999.90;;;;;;;10.04;100.00;93645.84;5067942;28;20198;-53
2023/10/22 06:00:51;;;;;;;1999.90;999.90;;;;;;;10.04;100.00;93636.88;5068010;28;20203;-57
2023/10/22 06:03:16;;;;;;;1999.90;999.90;;;;;;;10.04;100.00;93634.94;5067790;28;20168;-58
2023/10/22 06:05:42;;;;;;;1999.90;999.90;;;;;;;10.08;100.00;93643.78;5067749;28;20464;-59
2023/10/22 06:08:07;;;;;;;1999.90;999.90;;;;;;;10.14;100.00;93644.72;5068215;28;20189;-59
2023/10/22 06:10:42;;;;;;;1999.90;999.90;;;;;;;10.17;100.00;93645.81;5067707;28;20201;-58
2023/10/22 06:13:09;;;;;;;1999.90;999.90;;;;;;;10.21;100.00;93657.38;5066990;28;20465;-59
2023/10/22 06:15:39;;;;;;;1999.90;999.90;;;;;;;10.30;100.00;93659.41;5067171;28;20205;-59
2023/10/22 06:18:05;;;;;;;1999.90;999.90;;;;;;;10.37;100.00;93672.81;5067820;28;20174;-60
2023/10/22 06:20:32;;;;;;;1999.90;999.90;;;;;;;10.41;100.00;93681.63;5067563;28;20211;-59
2023/10/22 06:22:57;;;;;;;1999.90;999.90;;;;;;;10.45;100.00;93688.44;5067518;28;20172;-57
2023/10/22 06:25:23;;;;;;;1999.90;999.90;;;;;;;10.49;100.00;93700.00;5067461;28;20182;-59
2023/10/22 06:27:48;;;;;;;1999.90;999.90;;;;;;;10.53;100.00;93705.34;5067587;28;20243;-59
2023/10/22 06:30:14;;;;;;;1999.90;999.90;;;;;;;10.55;100.00;93724.75;5067405;28;20183;-59
2023/10/22 06:32:39;;;;;;;1999.90;999.90;;;;;;;10.61;100.00;93733.91;5067340;28;20184;-53
2023/10/22 06:35:07;;;;;;;1999.90;999.90;;;;;;;10.66;100.00;93736.06;5067268;28;20183;-56
2023/10/22 06:37:32;;;;;;;1999.90;999.90;;;;;;;10.68;100.00;93755.50;5067168;28;20224;-55
2023/10/22 06:39:58;;;;;;;1999.90;999.90;;;;;;;10.73;100.00;93763.13;5067248;28;20199;-53
2023/10/22 06:42:26;;;;;;;1999.90;999.90;;;;;;;10.78;100.00;93770.75;5067652;28;20247;-54
2023/10/22 06:44:51;;;;;;;1999.90;999.90;;;;;;;10.78;100.00;93787.13;5067218;28;20182;-52
2023/10/22 06:47:17;;;;;;;1999.90;999.90;;;;;;;10.86;100.00;93796.59;5067195;28;20177;-54
2023/10/22 06:49:43;;;;;;;1999.90;999.90;;;;;;;10.91;100.00;93801.47;5067137;28;20210;-54
2023/10/22 06:52:08;;;;;;;1999.90;999.90;;;;;;;10.98;100.00;93812.16;5066962;28;20370;-54
2023/10/22 06:54:33;;;;;;;1999.90;999.90;;;;;;;11.06;100.00;93829.81;5067909;28;20195;-55
2023/10/22 06:56:59;;;;;;;1999.90;999.90;;;;;;;11.11;100.00;93842.94;5067589;28;20196;-53
2023/10/22 06:59:25;;;;;;;1999.90;999.90;;;;;;;11.20;100.00;93857.41;5067012;28;20173;-56
2023/10/22 07:01:50;;;;;;;1999.90;999.90;;;;;;;11.29;100.00;93870.38;5067034;28;20226;-55
2023/10/22 07:04:17;;;;;;;1999.90;999.90;;;;;;;11.26;100.00;93909.53;5067270;28;20176;-55
2023/10/22 07:06:43;;;;;;;1999.90;999.90;;;;;;;11.33;100.00;93925.66;5066975;28;20177;-53
2023/10/22 07:09:09;;;;;;;1999.90;999.90;;;;;;;11.36;100.00;93963.06;5067458;28;20194;-54
2023/10/22 07:11:35;;;;;;;1999.90;999.90;;;;;;;11.37;100.00;93980.97;5066768;28;20196;-55
2023/10/22 07:14:01;;;;;;;1999.90;999.90;;;;;;;11.32;100.00;94023.28;5066794;28;20177;-55
2023/10/22 07:16:26;;;;;;;1999.90;999.90;;;;;;;11.33;100.00;94051.38;5066880;28;20227;-51
2023/10/22 07:18:52;;;;;;;1999.90;999.90;;;;;;;11.34;100.00;94074.78;5066878;28;20173;-52
2023/10/22 07:21:17;;;;;;;1999.90;999.90;;;;;;;11.38;100.00;94097.28;5067362;28;20194;-55
2023/10/22 07:23:43;;;;;;;1999.90;999.90;;;;;;;11.35;100.00;94125.50;5066824;28;20477;-54
2023/10/22 07:26:08;;;;;;;1999.90;999.90;;;;;;;11.41;100.00;94145.63;5070381;28;20180;-56
2023/10/22 07:28:33;;;;;;;1999.90;999.90;;;;;;;11.50;100.00;94153.91;5071305;28;20177;-56
2023/10/22 07:30:59;;;;;;;1999.90;999.90;;;;;;;11.52;100.00;94178.84;5071245;28;20173;-54
2023/10/22 07:33:28;;;;;;;1999.90;999.90;;;;;;;11.63;100.00;94206.66;5071214;28;20180;-53
2023/10/22 07:35:54;;;;;;;1999.90;999.90;;;;;;;11.77;100.00;94223.38;5071025;28;20197;-56
2023/10/22 07:38:20;;;;;;;1999.90;999.90;;;;;;;11.86;100.00;94247.31;5070454;28;20213;-56
2023/10/22 07:40:46;;;;;;;1999.90;999.90;;;;;;;11.95;100.00;94277.53;5070636;28;20177;-54
2023/10/22 07:43:11;;;;;;;1999.90;999.90;;;;;;;12.09;100.00;94298.97;5070474;28;20458;-56
2023/10/22 07:45:40;;;;;;;1999.90;999.90;;;;;;;12.21;100.00;94329.03;5070678;28;20218;-57
2023/10/22 07:48:05;;;;;;;1999.90;999.90;;;;;;;12.28;100.00;94352.72;5070369;28;20197;-54
2023/10/22 07:50:31;;;;;;;1999.90;999.90;;;;;;;12.31;100.00;94392.91;5070449;28;20165;-54
2023/10/22 07:52:56;;;;;;;1999.90;999.90;;;;;;;12.32;100.00;94419.81;5070517;28;20169;-57
2023/10/22 07:55:21;;;;;;;1999.90;999.90;;;;;;;12.33;100.00;94451.50;5070245;28;20260;-54
2023/10/22 07:57:47;;;;;;;1999.90;999.90;;;;;;;12.28;100.00;94465.69;5070250;28;20237;-53
2023/10/22 08:00:14;;;;;;;1999.90;999.90;;;;;;;12.24;100.00;94483.44;5070123;28;20168;-51
2023/10/22 08:02:39;;;;;;;1999.90;999.90;;;;;;;12.26;100.00;94486.50;5070093;28;20173;-52
2023/10/22 08:05:05;;;;;;;1999.90;999.90;;;;;;;12.27;100.00;94493.50;5070632;28;20170;-54
2023/10/22 08:07:30;;;;;;;1999.90;999.90;;;;;;;12.25;100.00;94504.16;5070083;28;20173;-54
2023/10/22 08:09:55;;;;;;;1999.90;999.90;;;;;;;12.32;100.00;94498.47;5070084;28;20169;-54
2023/10/22 08:12:21;;;;;;;1999.90;999.90;;;;;;;12.34;100.00;94517.94;5069887;28;20165;-54
2023/10/22 08:14:46;;;;;;;1999.90;999.90;;;;;;;12.48;100.00;94531.22;5070358;28;20173;-53
2023/10/22 08:17:12;;;;;;;1999.90;999.90;;;;;;;12.76;100.00;94533.88;5069803;28;20197;-52
2023/10/22 08:19:37;;;;;;;1999.90;999.90;;;;;;;13.03;100.00;94569.09;5070284;28;20237;-52
2023/10/22 08:22:04;;;;;;;1999.90;999.90;;;;;;;14.76;100.00;94601.22;5070252;28;20189;-53
2023/10/22 08:24:29;;;;;;;1999.90;999.90;;;;;;;15.35;100.00;94708.25;5069645;28;20173;-52
2023/10/22 08:26:54;;;;;;;1999.90;999.90;;;;;;;16.03;100.00;94762.25;5069704;28;20191;-53
2023/10/22 08:29:20;;;;;;;1999.90;999.90;;;;;;;17.53;100.00;94812.31;5070274;28;20165;-55
2023/10/22 08:31:45;;;;;;;1999.90;999.90;;;;;;;19.09;100.00;94855.09;5069515;28;20238;-50
2023/10/22 08:34:10;;;;;;;1999.90;999.90;;;;;;;20.27;100.00;94865.97;5069585;28;20170;-52
2023/10/22 08:36:36;;;;;;;1999.90;999.90;;;;;;;21.21;100.00;94868.22;5068386;28;20228;-52
2023/10/22 08:39:02;;;;;;;1999.90;999.90;;;;;;;20.43;100.00;94879.38;5069589;28;20264;-52
2023/10/22 08:41:43;;;;;;;1999.90;999.90;;;;;;;19.49;100.00;94892.19;5070128;28;20241;-51
2023/10/22 08:44:10;;;;;;;1999.90;999.90;;;;;;;18.53;100.00;94888.25;5070112;28;20170;-51
2023/10/22 08:46:35;;;;;;;1999.90;999.90;;;;;;;18.47;100.00;94887.34;5069823;28;20192;-52
2023/10/22 08:49:09;;;;;;;1999.90;999.90;;;;;;;18.38;100.00;94887.38;5069382;28;20173;-55
2023/10/22 08:51:34;;;;;;;1999.90;999.90;;;;;;;17.90;100.00;94888.38;5069599;28;20170;-54
2023/10/22 08:54:01;;;;;;;1999.90;999.90;;;;;;;18.80;100.00;94890.91;5069143;28;20176;-55
2023/10/22 08:56:27;;;;;;;1999.90;999.90;;;;;;;20.65;100.00;94899.91;5068938;28;20274;-57
2023/10/22 08:58:53;;;;;;;1999.90;999.90;;;;;;;21.94;100.00;94894.44;5069083;28;20192;-55
2023/10/22 09:01:18;;;;;;;1999.90;999.90;;;;;;;22.55;100.00;94892.28;5069216;28;20192;-53
2023/10/22 09:03:44;;;;;;;1999.90;999.90;;;;;;;22.52;100.00;94894.00;5069272;28;20459;-57
2023/10/22 09:06:09;;;;;;;1999.90;999.90;;;;;;;23.04;100.00;94899.47;5069703;28;20193;-57
2023/10/22 09:08:42;;;;;;;1999.90;999.90;;;;;;;22.26;100.00;94898.06;5069694;28;20219;-54
2023/10/22 09:11:16;;;;;;;1999.90;999.90;;;;;;;23.13;100.00;94902.09;5068754;28;20165;-59
2023/10/22 09:13:41;;;;;;;1999.90;999.90;;;;;;;23.42;100.00;94899.75;5069322;28;20278;-58
2023/10/22 09:16:08;;;;;;;1999.90;999.90;;;;;;;23.08;100.00;94888.91;5069142;28;20205;-58
2023/10/22 09:18:41;;;;;;;1999.90;999.90;;;;;;;23.18;100.00;94893.00;5068764;28;20166;-55
2023/10/22 09:21:07;;;;;;;1999.90;999.90;;;;;;;23.44;100.00;94899.25;5069051;28;20233;-54
2023/10/22 09:23:32;;;;;;;1999.90;999.90;;;;;;;23.16;100.00;94895.53;5069259;28;20193;-52
2023/10/22 09:25:58;;;;;;;1999.90;999.90;;;;;;;22.89;100.00;94896.09;5068655;28;20236;-54
2023/10/22 09:28:25;;;;;;;1999.90;999.90;;;;;;;22.85;100.00;94893.53;5068709;28;20229;-54
2023/10/22 09:30:58;;;;;;;1999.90;999.90;;;;;;;22.44;100.00;94895.69;5068427;28;20169;-53
2023/10/22 09:33:32;;;;;;;1999.90;999.90;;;;;;;22.43;100.00;94890.59;5069294;28;20192;-52
2023/10/22 09:36:00;;;;;;;1999.90;999.90;;;;;;;22.44;100.00;94898.47;5068846;28;20240;-53
2023/10/22 09:38:47;;;;;;;1999.90;999.90;;;;;;;21.84;100.00;94890.28;5068345;28;20220;-53
2023/10/22 09:41:29;;;;;;;1999.90;999.90;;;;;;;21.65;100.00;94893.78;5068405;28;20169;-54
2023/10/22 09:43:56;;;;;;;1999.90;999.90;;;;;;;22.37;100.00;94898.91;5068689;28;20176;-52
2023/10/22 09:46:25;;;;;;;1999.90;999.90;;;;;;;22.95;100.00;94908.03;5068707;28;20173;-55
2023/10/22 09:48:50;;;;;;;1999.90;999.90;;;;;;;22.52;100.00;94903.63;5067955;28;20173;-53
2023/10/22 09:51:17;;;;;;;1999.90;999.90;;;;;;;23.04;100.00;94899.47;5068382;28;20165;-54
2023/10/22 09:53:52;;;;;;;1999.90;999.90;;;;;;;23.57;100.00;94900.38;5068006;28;20181;-51
2023/10/22 09:56:20;;;;;;;1999.90;999.90;;;;;;;24.40;100.00;94911.84;5068181;28;20204;-55
2023/10/22 09:58:47;;;;;;;1999.90;999.90;;;;;;;24.92;97.17;94901.75;5067798;28;20184;-56
2023/10/22 10:01:14;;;;;;;1999.90;999.90;;;;;;;24.84;90.63;94911.91;5067889;28;20168;-60
2023/10/22 10:03:43;;;;;;;1999.90;999.90;;;;;;;24.63;95.50;94919.00;5067806;28;20170;-60
2023/10/22 10:06:09;;;;;;;1999.90;999.90;;;;;;;25.07;90.76;94921.81;5067778;28;20168;-45
2023/10/22 10:08:39;;;;;;;1999.90;999.90;;;;;;;24.10;96.52;94899.56;5067772;28;20232;-47
2023/10/22 10:11:06;;;;;;;1999.90;999.90;;;;;;;23.29;100.00;94901.47;5068267;28;20169;-45
2023/10/22 10:13:32;;;;;;;1999.90;999.90;;;;;;;23.45;100.00;94901.56;5068198;28;20236;-48
2023/10/22 10:16:05;;;;;;;1999.90;999.90;;;;;;;22.94;100.00;94898.16;5067977;28;20267;-43
2023/10/22 10:18:59;;;;;;;1999.90;999.90;;;;;;;23.88;97.34;94905.03;5067737;28;20237;-44
2023/10/22 10:21:33;;;;;;;1999.90;999.90;;;;;;;24.69;90.16;94908.63;5067605;28;20205;-46
2023/10/22 10:24:26;;;;;;;1999.90;999.90;;;;;;;24.88;86.86;94904.03;5067541;28;20169;-46
2023/10/22 10:26:55;;;;;;;1999.90;999.90;;;;;;;25.09;81.70;94902.50;5057204;28;20181;-46
2023/10/22 10:29:24;;;;;;;1999.90;999.90;;;;;;;25.44;79.69;94899.94;5067354;28;20169;-49
2023/10/22 10:31:51;;;;;;;1999.90;999.90;;;;;;;25.95;71.86;94895.69;5067850;28;20211;-47
2023/10/22 10:34:32;;;;;;;1999.90;999.90;;;;;;;24.96;76.62;94907.84;5067709;28;20174;-45
2023/10/22 10:37:15;;;;;;;1999.90;999.90;;;;;;;25.60;73.22;94892.78;5067040;28;20228;-46
2023/10/22 10:39:48;;;;;;;1999.90;999.90;;;;;;;24.59;76.97;94896.13;5067744;28;20212;-46
2023/10/22 10:42:34;;;;;;;1999.90;999.90;;;;;;;25.31;74.38;94899.69;5067672;28;20157;-47
2023/10/22 10:45:00;;;;;;;1999.90;999.90;;;;;;;25.21;74.61;94904.03;5067798;28;20172;-45
2023/10/22 10:47:27;;;;;;;1999.90;999.90;;;;;;;25.53;77.00;94888.47;5067182;28;20165;-49
2023/10/22 10:50:12;;;;;;;1999.90;999.90;;;;;;;25.36;74.76;94901.72;5067889;28;20169;-46
2023/10/22 10:52:37;;;;;;;1999.90;999.90;;;;;;;25.28;75.45;94898.66;5067897;28;20175;-47
2023/10/22 10:55:15;;;;;;;1999.90;999.90;;;;;;;22.80;83.24;94899.81;5067104;28;20224;-49
2023/10/22 10:57:46;;;;;;;1999.90;999.90;;;;;;;21.15;100.00;94890.34;5067602;28;20173;-48
2023/10/22 11:00:22;;;;;;;1999.90;999.90;;;;;;;20.44;100.00;94892.75;5066107;28;20182;-47
2023/10/22 11:02:49;;;;;;;1999.90;999.90;;;;;;;19.45;100.00;94890.88;5067543;28;20217;-49
2023/10/22 11:05:16;;;;;;;1999.90;999.90;;;;;;;18.71;100.00;94883.41;5067794;28;20173;-48
2023/10/22 11:07:45;;;;;;;1999.90;999.90;;;;;;;18.50;100.00;94894.72;5067205;28;20181;-51
2023/10/22 11:10:14;;;;;;;1999.90;999.90;;;;;;;18.60;100.00;94890.69;5066910;28;20173;-52
2023/10/22 11:12:40;;;;;;;1999.90;999.90;;;;;;;18.29;100.00;94895.69;5066945;28;20162;-52
2023/10/22 11:15:10;;;;;;;1999.90;999.90;;;;;;;18.41;100.00;94883.69;5066794;28;20166;-51
2023/10/22 11:17:37;;;;;;;1999.90;999.90;;;;;;;18.32;100.00;94875.41;5067296;28;20213;-51
2023/10/22 11:20:04;;;;;;;1999.90;999.90;;;;;;;17.96;100.00;94883.78;5066756;28;20172;-51
2023/10/22 11:22:30;;;;;;;1999.90;999.90;;;;;;;18.21;100.00;94883.41;5066846;28;20248;-50
2023/10/22 11:24:58;;;;;;;1999.90;999.90;;;;;;;18.27;100.00;94878.78;5067147;28;20412;-51
2023/10/22 11:27:24;;;;;;;1999.90;999.90;;;;;;;18.46;100.00;94888.56;5066719;28;20177;-46